createdAt,value
2023-02-05T00:03:42.684Z,86.61
2023-02-05T00:08:44.974Z,86.26
2023-02-05T00:13:51.951Z,87.61
2023-02-05T00:18:54.737Z,87.60
2023-02-05T00:23:56.702Z,87.24
2023-02-05T00:28:59.196Z,87.26
2023-02-05T00:34:03.760Z,87.29
2023-02-05T00:39:09.097Z,87.21
2023-02-05T00:44:11.118Z,88.14
2023-02-05T00:49:13.977Z,88.15
2023-02-05T00:54:16.271Z,87.99
2023-02-05T00:59:18.291Z,88.48
2023-02-05T01:04:20.063Z,89.07
2023-02-05T01:09:23.330Z,88.85
2023-02-05T01:14:25.368Z,88.82
2023-02-05T01:19:27.594Z,89.05
2023-02-05T01:24:30.117Z,88.97
2023-02-05T01:29:32.551Z,89.32
2023-02-05T01:34:35.097Z,89.47
2023-02-05T01:39:37.542Z,89.44
2023-02-05T01:44:41.096Z,89.47
2023-02-05T01:49:46.355Z,89.58
2023-02-05T01:54:53.276Z,89.76
2023-02-05T01:59:55.714Z,90.36
2023-02-05T02:05:02.816Z,90.46
2023-02-05T02:10:06.235Z,90.83
2023-02-05T02:15:20.325Z,91.02
2023-02-05T02:20:30.303Z,90.91
2023-02-05T02:25:48.964Z,90.94
2023-02-05T02:31:06.989Z,91.07
2023-02-05T02:36:18.046Z,91.22
2023-02-05T02:41:28.630Z,91.34
2023-02-05T02:46:44.441Z,91.38
2023-02-05T02:51:51.159Z,91.41
2023-02-05T02:56:55.821Z,91.37
2023-02-05T03:02:02.554Z,91.16
2023-02-05T03:07:13.619Z,90.97
2023-02-05T03:12:16.108Z,90.88
2023-02-05T03:17:19.854Z,90.83
2023-02-05T03:22:26.000Z,90.84
2023-02-05T03:27:28.433Z,90.84
2023-02-05T03:32:46.515Z,90.87
2023-02-05T03:38:12.698Z,90.93
2023-02-05T03:43:21.208Z,91.05
2023-02-05T03:48:40.109Z,90.97
2023-02-05T03:54:05.096Z,90.71
2023-02-05T03:59:09.204Z,90.53
2023-02-05T04:04:12.705Z,90.48
2023-02-05T04:09:14.925Z,90.49
2023-02-05T04:14:17.924Z,90.76
2023-02-05T04:19:20.976Z,90.91
2023-02-05T04:24:23.216Z,90.81
2023-02-05T04:29:25.298Z,90.55
2023-02-05T04:34:28.184Z,90.71
2023-02-05T04:39:31.077Z,90.81
2023-02-05T04:44:33.025Z,90.88
2023-02-05T04:49:38.349Z,91.02
2023-02-05T04:54:40.609Z,91.08
2023-02-05T04:59:42.577Z,91.02
2023-02-05T05:04:44.491Z,90.91
2023-02-05T05:09:46.735Z,91.09
2023-02-05T05:14:48.548Z,91.09
2023-02-05T05:19:50.476Z,91.03
2023-02-05T05:24:52.511Z,90.85
2023-02-05T05:29:54.497Z,90.68
2023-02-05T05:34:57.316Z,90.58
2023-02-05T05:40:18.267Z,90.39
2023-02-05T05:45:20.280Z,90.39
2023-02-05T05:50:22.538Z,90.32
2023-02-05T05:55:24.453Z,90.30
2023-02-05T06:00:26.986Z,90.32
2023-02-05T06:05:31.548Z,90.43
2023-02-05T06:10:33.643Z,90.38
2023-02-05T06:15:35.879Z,90.39
2023-02-05T06:20:38.071Z,90.50
2023-02-05T06:25:40.493Z,90.60
2023-02-05T06:30:43.098Z,90.72
2023-02-05T06:35:44.921Z,90.69
2023-02-05T06:40:48.312Z,90.66
2023-02-05T06:45:50.306Z,90.60
2023-02-05T06:50:55.262Z,90.54
2023-02-05T06:56:00.897Z,90.58
2023-02-05T07:01:03.214Z,90.61
2023-02-05T07:06:06.394Z,90.60
2023-02-05T07:11:08.334Z,90.66
2023-02-05T07:16:10.431Z,90.29
2023-02-05T07:21:17.222Z,90.36
2023-02-05T07:26:19.131Z,91.14
2023-02-05T07:31:21.071Z,89.90
2023-02-05T07:36:23.222Z,89.09
2023-02-05T07:41:26.849Z,89.05
2023-02-05T07:46:28.965Z,89.30
2023-02-05T07:51:31.534Z,89.34
2023-02-05T07:56:33.565Z,89.53
2023-02-05T08:01:35.782Z,89.13
2023-02-05T08:06:37.593Z,88.46
2023-02-05T08:11:40.101Z,87.99
2023-02-05T08:16:42.060Z,87.65
2023-02-05T08:21:44.406Z,87.45
2023-02-05T08:26:46.320Z,87.00
2023-02-05T08:31:48.474Z,87.01
2023-02-05T08:36:50.916Z,86.71
2023-02-05T08:41:54.880Z,86.61
2023-02-05T08:46:57.979Z,85.78
2023-02-05T08:51:59.909Z,85.74
2023-02-05T08:57:02.868Z,85.67
2023-02-05T09:02:05.251Z,85.48
2023-02-05T09:07:07.170Z,81.32
2023-02-05T09:12:10.853Z,81.09
2023-02-05T09:17:14.422Z,81.82
2023-02-05T09:22:18.442Z,81.83
2023-02-05T09:27:21.123Z,81.50
2023-02-05T09:32:23.567Z,80.13
2023-02-05T09:37:25.852Z,81.97
2023-02-05T09:42:39.227Z,82.22
2023-02-05T09:48:22.629Z,83.37
2023-02-05T09:53:37.206Z,81.91
2023-02-05T09:58:46.290Z,78.89
2023-02-05T10:04:00.779Z,77.38
2023-02-05T10:09:24.969Z,79.40
2023-02-05T10:14:39.255Z,78.49
2023-02-05T10:20:07.361Z,75.97
2023-02-05T10:25:34.784Z,74.59
2023-02-05T10:30:56.753Z,76.23
2023-02-05T10:36:02.479Z,72.06
2023-02-05T10:41:12.990Z,76.18
2023-02-05T10:46:17.248Z,73.81
2023-02-05T10:51:30.938Z,72.36
2023-02-05T10:56:33.151Z,73.57
2023-02-05T11:01:38.876Z,72.93
2023-02-05T11:06:51.288Z,72.01
2023-02-05T11:12:06.983Z,71.23
2023-02-05T11:17:32.125Z,71.21
2023-02-05T11:22:37.406Z,71.06
2023-02-05T11:27:39.499Z,71.95
2023-02-05T11:32:41.670Z,73.95
2023-02-05T11:37:45.190Z,75.69
2023-02-05T11:42:55.008Z,74.64
2023-02-05T11:48:00.248Z,74.90
2023-02-05T11:53:12.450Z,73.67
2023-02-05T11:58:36.996Z,74.76
2023-02-05T12:03:39.644Z,74.13
2023-02-05T12:08:48.336Z,73.15
2023-02-05T12:14:02.196Z,72.46
2023-02-05T12:19:26.736Z,74.29
2023-02-05T12:24:51.950Z,75.58
2023-02-05T12:30:13.435Z,76.16
2023-02-05T12:35:42.763Z,77.38
2023-02-05T12:40:53.673Z,75.70
2023-02-05T12:46:16.145Z,76.48
2023-02-05T12:51:39.016Z,78.31
2023-02-05T12:57:01.822Z,75.64
2023-02-05T13:02:13.277Z,73.88
2023-02-05T13:07:29.507Z,74.92
2023-02-05T13:12:38.079Z,73.48
2023-02-05T13:17:57.746Z,71.47
2023-02-05T13:23:18.634Z,73.16
2023-02-05T13:28:41.405Z,74.80
2023-02-05T13:33:44.473Z,75.49
2023-02-05T13:39:13.702Z,74.12
2023-02-05T13:44:44.750Z,75.25
2023-02-05T13:50:05.650Z,75.06
2023-02-05T13:55:24.560Z,76.25
2023-02-05T14:00:28.471Z,76.14
2023-02-05T14:05:34.912Z,75.45
2023-02-05T14:10:42.103Z,78.15
2023-02-05T14:15:44.981Z,77.95
2023-02-05T14:20:46.853Z,78.27
2023-02-05T14:26:11.423Z,78.78
2023-02-05T14:31:47.780Z,77.28
2023-02-05T14:36:50.926Z,76.56
2023-02-05T14:41:58.590Z,77.11
2023-02-05T14:47:29.301Z,79.24
2023-02-05T14:52:42.313Z,79.68
2023-02-05T14:58:03.339Z,79.37
2023-02-05T15:03:20.090Z,78.46
2023-02-05T15:08:46.214Z,79.53
2023-02-05T15:14:36.915Z,81.65
2023-02-05T15:19:44.130Z,81.21
2023-02-05T15:24:49.375Z,80.33
2023-02-05T15:29:57.271Z,80.49
2023-02-05T15:35:12.856Z,81.50
2023-02-05T15:40:33.060Z,81.18
2023-02-05T15:45:40.385Z,80.09
2023-02-05T15:50:56.349Z,78.73
2023-02-05T15:55:59.966Z,81.28
2023-02-05T16:01:03.473Z,79.77
2023-02-05T16:06:07.228Z,78.29
2023-02-05T16:11:09.090Z,80.03
2023-02-05T16:16:23.215Z,81.54
2023-02-05T16:21:36.744Z,82.64
2023-02-05T16:26:48.667Z,83.21
2023-02-05T16:31:59.503Z,83.66
2023-02-05T16:37:05.521Z,83.63
2023-02-05T16:42:16.286Z,83.05
2023-02-05T16:47:20.151Z,82.61
2023-02-05T16:52:35.791Z,82.79
2023-02-05T16:57:39.538Z,82.95
2023-02-05T17:02:41.938Z,83.20
2023-02-05T17:07:53.249Z,82.06
2023-02-05T17:13:03.441Z,82.62
2023-02-05T17:18:30.146Z,82.23
2023-02-05T17:23:32.187Z,81.63
2023-02-05T17:28:38.205Z,82.14
2023-02-05T17:33:40.245Z,81.90
2023-02-05T17:38:42.189Z,82.14
2023-02-05T17:43:44.293Z,80.83
2023-02-05T17:48:47.238Z,80.83
2023-02-05T17:53:50.056Z,82.06
2023-02-05T17:58:53.444Z,82.53
2023-02-05T18:03:55.184Z,81.89
2023-02-05T18:08:57.293Z,81.33
2023-02-05T18:13:59.140Z,80.35
2023-02-05T18:19:01.579Z,80.33
2023-02-05T18:24:04.025Z,80.60
2023-02-05T18:29:06.630Z,78.70
2023-02-05T18:34:15.838Z,80.18
2023-02-05T18:39:17.788Z,81.48
2023-02-05T18:44:20.001Z,81.68
2023-02-05T18:49:22.916Z,82.02
2023-02-05T18:54:25.060Z,81.83
2023-02-05T18:59:28.862Z,81.48
2023-02-05T19:04:33.091Z,80.28
2023-02-05T19:09:36.627Z,80.14
2023-02-05T19:14:39.452Z,80.58
2023-02-05T19:19:41.697Z,80.51
2023-02-05T19:24:44.692Z,81.39
2023-02-05T19:29:47.885Z,80.20
2023-02-05T19:34:51.716Z,78.91
2023-02-05T19:39:54.005Z,75.80
2023-02-05T19:44:56.531Z,77.83
2023-02-05T19:49:58.350Z,80.03
2023-02-05T19:55:02.063Z,78.62
2023-02-05T20:00:04.651Z,77.86
2023-02-05T20:05:14.025Z,80.78
2023-02-05T20:10:16.280Z,81.69
2023-02-05T20:15:18.495Z,82.48
2023-02-05T20:20:32.836Z,82.99
2023-02-05T20:25:35.461Z,83.11
2023-02-05T20:30:56.150Z,81.38
2023-02-05T20:36:03.817Z,82.08
2023-02-05T20:41:17.721Z,80.79
2023-02-05T20:46:19.877Z,80.34
2023-02-05T20:51:23.111Z,81.04
2023-02-05T20:56:27.508Z,81.92
2023-02-05T21:01:32.168Z,82.84
2023-02-05T21:06:37.409Z,82.74
2023-02-05T21:11:40.214Z,83.02
2023-02-05T21:16:42.758Z,83.46
2023-02-05T21:21:45.724Z,83.55
2023-02-05T21:26:49.435Z,83.14
2023-02-05T21:31:55.522Z,82.99
2023-02-05T21:37:00.499Z,83.18
2023-02-05T21:42:02.632Z,82.96
2023-02-05T21:47:04.981Z,82.69
2023-02-05T21:52:08.305Z,82.39
2023-02-05T21:57:10.701Z,82.03
2023-02-05T22:02:12.677Z,82.33
2023-02-05T22:07:15.135Z,82.31
2023-02-05T22:12:18.452Z,82.53
2023-02-05T22:17:22.409Z,82.29
2023-02-05T22:22:24.447Z,82.48
2023-02-05T22:27:27.255Z,82.71
2023-02-05T22:32:32.194Z,82.76
2023-02-05T22:37:34.746Z,83.05
2023-02-05T22:42:36.695Z,82.09
2023-02-05T22:47:38.691Z,81.33
2023-02-05T22:52:40.773Z,82.28
2023-02-05T22:57:43.190Z,82.17
2023-02-05T23:02:46.432Z,81.84
2023-02-05T23:07:49.907Z,82.07
2023-02-05T23:12:52.413Z,82.43
2023-02-05T23:17:54.474Z,82.69
2023-02-05T23:22:56.618Z,82.60
2023-02-05T23:27:58.643Z,82.89
2023-02-05T23:33:01.230Z,83.03
2023-02-05T23:38:03.569Z,82.77
2023-02-05T23:43:06.142Z,82.68
2023-02-05T23:48:10.989Z,82.67
2023-02-05T23:53:13.351Z,81.95
2023-02-05T23:58:23.065Z,81.12
